Date,TemperatureHighF,TemperatureAvgF,TemperatureLowF,DewpointHighF,DewpointAvgF,DewpointLowF,HumidityHigh,HumidityAvg,HumidityLow,PressureMaxIn,PressureMinIn,WindSpeedMaxMPH,WindSpeedAvgMPH,GustSpeedMaxMPH,PrecipitationSumIn
2012-12-1,59.8,47.3,31.2,51.1,41.5,29.3,96,81,70,30.20,30.01,8,2,12,0.00
2012-12-2,57.3,55.5,49.2,54.2,51.2,47.0,97,86,69,30.07,29.93,10,3,13,0.07
2012-12-3,64.8,59.4,53.6,61.5,57.4,53.0,99,93,80,30.08,29.90,9,2,16,0.00
2012-12-4,63.1,51.9,40.5,57.7,46.8,35.8,95,83,68,30.17,29.91,11,4,20,0.21
2012-12-5,43.3,35.0,27.8,37.2,28.1,23.9,85,76,59,30.41,30.19,9,3,15,0.00
2012-12-6,43.0,33.7,27.3,36.5,29.0,23.5,89,83,74,30.30,29.97,3,1,10,0.00
2012-12-7,47.8,43.0,38.1,44.1,40.9,35.7,97,92,86,29.97,29.85,2,0,5,0.12
2012-12-8,44.1,40.6,34.4,42.7,39.2,32.3,98,95,90,30.11,29.82,7,2,14,0.04
2012-12-9,45.1,38.2,34.3,44.8,36.7,31.8,99,94,90,30.12,29.68,19,6,24,0.11
2012-12-10,41.8,33.5,30.2,41.3,31.7,28.2,98,93,87,29.93,29.70,20,7,23,0.00
2012-12-11,32.7,29.8,27.6,30.4,25.4,22.4,96,84,66,30.20,29.92,15,7,23,0.00
2012-12-12,41.7,30.8,25.3,29.1,24.8,22.2,89,79,55,30.38,30.21,10,6,16,0.00
2012-12-13,44.7,35.3,28.0,30.5,27.3,24.1,85,73,54,30.39,30.19,20,8,23,0.00
2012-12-14,47.7,38.7,29.9,33.2,29.3,24.6,84,69,54,30.27,30.13,8,4,14,0.00
2012-12-15,49.6,43.6,38.0,48.2,37.9,30.5,95,81,65,30.13,29.66,15,7,24,0.07
2012-12-16,50.8,47.8,39.7,49.7,45.4,36.2,96,92,85,29.72,29.59,14,8,22,0.16
2012-12-17,40.2,38.0,36.4,36.5,34.6,33.3,92,87,82,29.74,29.63,10,3,16,0.01
2012-12-18,38.6,35.9,31.3,35.9,33.2,30.0,95,90,83,29.83,29.67,14,6,21,0.01
2012-12-19,43.1,40.1,37.9,37.5,36.2,34.7,93,86,76,30.07,29.72,15,4,21,0.00
2012-12-20,51.3,40.3,32.3,48.8,37.9,30.8,96,91,79,29.96,29.11,22,8,33,0.84
2012-12-21,34.6,33.2,31.9,33.6,31.5,28.9,100,93,82,30.07,29.23,27,16,47,0.00
2012-12-22,31.4,26.0,23.1,29.1,22.5,19.3,91,86,75,30.22,30.06,15,6,22,0.00
2012-12-23,34.9,26.8,20.5,28.7,22.9,17.9,94,85,76,30.04,29.94,7,2,12,0.00
2012-12-24,31.5,28.7,25.5,29.2,25.8,22.2,95,89,85,30.05,29.82,10,4,15,0.00
2012-12-25,33.3,28.6,22.9,25.9,23.7,20.4,90,82,70,30.29,30.06,11,5,17,0.00
2012-12-26,29.8,27.9,25.3,25.6,24.0,21.6,94,85,77,30.21,29.84,21,10,31,0.00
2012-12-27,65.0,28.1,23.3,64.1,24.1,19.4,97,85,79,30.19,30.00,11,4,20,0.01
2012-12-28,32.6,28.6,25.7,27.6,25.8,24.2,94,89,81,30.18,29.92,4,1,8,0.00
2012-12-29,30.7,28.4,26.4,28.9,26.4,23.3,96,92,87,30.18,29.85,12,5,18,0.00
2012-12-30,30.5,23.4,17.9,22.8,19.5,14.8,92,85,71,30.41,30.19,16,5,17,0.00
2012-12-31,34.9,30.6,24.7,30.6,26.7,20.6,94,85,74,30.23,30.04,12,6,22,0.00